This is the latest recevied weather packets stored in our database for station/object W4CKA. If no packets are shown the sender has not sent any weather packets the latest 1 day(s).
| Time | Temp. | Humidity | Pressure | Rain* | Wind** | Luminosity | Snow |
|---|---|---|---|---|---|---|---|
| 1778044976 | 14.44° C | 95% | 1053.1 hPa | 0 mm | - | 0 W/m² | - |
| 1778044375 | 14.44° C | 94% | 1053.4 hPa | 0 mm | - | 0 W/m² | - |
| 1778043770 | 14.44° C | 93% | 1053.4 hPa | 0 mm | - | 0 W/m² | - |
| 1778043169 | 15° C | 89% | 1053.5 hPa | 0.51 mm | - | 0 W/m² | - |
| 1778042570 | 15° C | 88% | 1054.1 hPa | 1.27 mm | - | 0 W/m² | - |
| 1778041964 | 15° C | 87% | 1054.3 hPa | 0 mm | - | 0 W/m² | - |
| 1778041361 | 15.56° C | 84% | 1054.3 hPa | 0 mm | - | 0 W/m² | - |
| 1778040762 | 15.56° C | 82% | 1054 hPa | 0 mm | - | 0 W/m² | - |
| 1778040156 | 15.56° C | 83% | 1054.1 hPa | 0 mm | - | 0 W/m² | - |
| 1778039555 | 15° C | 86% | 1054 hPa | 0 mm | - | 0 W/m² | - |
| 1778038955 | 15° C | 85% | 1054 hPa | 0 mm | - | 0 W/m² | - |
| 1778038350 | 14.44° C | 88% | 1053.8 hPa | 0 mm | - | 0 W/m² | - |
| 1778037749 | 13.89° C | 88% | 1053.6 hPa | 0 mm | - | 0 W/m² | - |
| 1778037149 | 14.44° C | 87% | 1053.7 hPa | 0 mm | - | 0 W/m² | - |
| 1778035943 | 15° C | 86% | 1053.7 hPa | 0 mm | - | 0 W/m² | - |
| 1778035343 | 15° C | 85% | 1053.6 hPa | 0 mm | - | 0 W/m² | - |
| 1778034137 | 15.56° C | 83% | 1053.6 hPa | 0 mm | - | 0 W/m² | - |
| 1778033537 | 15.56° C | 82% | 1053.2 hPa | 0 mm | - | 0 W/m² | - |
| 1778032333 | 16.67° C | 77% | 1053.1 hPa | 0 mm | - | 0 W/m² | - |
| 1778031731 | 16.67° C | 78% | 1052.8 hPa | 0 mm | - | 0 W/m² | - |
| 1778031126 | 17.22° C | 75% | 1053.1 hPa | 0 mm | - | 0 W/m² | - |
| 1778030525 | 17.78° C | 76% | 1053 hPa | 0 mm | - | 0 W/m² | - |
| 1778029924 | 18.33° C | 72% | 1052.8 hPa | 0 mm | - | 0 W/m² | - |
| 1778029319 | 18.33° C | 71% | 1053.3 hPa | 0 mm | - | 0 W/m² | - |
| 1778028719 | 18.89° C | 69% | 1053 hPa | 0 mm | - | 0 W/m² | - |
* Rain latest hour (hover to see other rain measurements)
** Current wind speed in m/s (hover to see current wind gust speed)